createdAt,value
2018-11-11T00:02:41.555Z,10.10
2018-11-11T00:07:21.325Z,10.10
2018-11-11T00:12:01.938Z,10.10
2018-11-11T00:16:43.028Z,10.10
2018-11-11T00:21:23.311Z,10.10
2018-11-11T00:26:03.303Z,10.20
2018-11-11T00:30:42.957Z,10.20
2018-11-11T00:35:24.328Z,10.30
2018-11-11T00:40:07.500Z,10.30
2018-11-11T00:44:52.751Z,10.40
2018-11-11T00:49:32.560Z,10.40
2018-11-11T00:54:12.925Z,10.50
2018-11-11T00:58:53.612Z,10.50
2018-11-11T01:03:33.894Z,10.50
2018-11-11T01:08:14.530Z,10.50
2018-11-11T01:12:55.147Z,10.50
2018-11-11T01:17:35.196Z,10.40
2018-11-11T01:22:14.933Z,10.40
2018-11-11T01:26:55.824Z,10.40
2018-11-11T01:31:36.402Z,10.40
2018-11-11T01:36:16.717Z,10.40
2018-11-11T01:40:56.619Z,10.50
2018-11-11T01:45:36.958Z,10.50
2018-11-11T01:50:17.513Z,10.60
2018-11-11T01:54:57.652Z,10.60
2018-11-11T01:59:37.842Z,10.70
2018-11-11T02:04:18.997Z,10.70
2018-11-11T02:08:59.105Z,10.80
2018-11-11T02:13:39.623Z,10.80
2018-11-11T02:18:20.168Z,10.90
2018-11-11T02:23:00.718Z,10.90
2018-11-11T02:27:41.161Z,10.90
2018-11-11T02:32:21.417Z,10.90
2018-11-11T02:37:01.203Z,10.90
2018-11-11T02:41:41.038Z,10.90
2018-11-11T02:46:21.110Z,10.90
2018-11-11T02:51:00.983Z,10.90
2018-11-11T02:55:40.898Z,10.90
2018-11-11T03:00:21.600Z,10.90
2018-11-11T03:05:01.858Z,10.80
2018-11-11T03:09:41.630Z,10.80
2018-11-11T03:14:22.428Z,10.80
2018-11-11T03:19:03.225Z,10.80
2018-11-11T03:23:43.269Z,10.80
2018-11-11T03:28:23.291Z,10.70
2018-11-11T03:33:03.323Z,10.70
2018-11-11T03:37:43.898Z,10.70
2018-11-11T03:42:23.938Z,10.70
2018-11-11T03:47:04.621Z,10.70
2018-11-11T03:51:44.921Z,10.70
2018-11-11T03:56:25.675Z,10.70
2018-11-11T04:01:05.819Z,10.60
2018-11-11T04:05:46.465Z,10.60
2018-11-11T04:10:26.549Z,10.60
2018-11-11T04:15:07.937Z,10.60
2018-11-11T04:19:47.633Z,10.60
2018-11-11T04:24:28.263Z,10.60
2018-11-11T04:29:08.041Z,10.60
2018-11-11T04:33:47.885Z,10.60
2018-11-11T04:38:27.623Z,10.50
2018-11-11T04:43:07.400Z,10.50
2018-11-11T04:47:47.269Z,10.50
2018-11-11T04:52:27.184Z,10.50
2018-11-11T04:57:07.183Z,10.50
2018-11-11T05:01:47.137Z,10.40
2018-11-11T05:06:26.985Z,10.40
2018-11-11T05:11:06.967Z,10.40
2018-11-11T05:15:46.823Z,10.30
2018-11-11T05:20:26.605Z,10.30
2018-11-11T05:25:08.938Z,10.30
2018-11-11T05:29:48.682Z,10.30
2018-11-11T05:34:28.451Z,10.30
2018-11-11T05:39:10.593Z,10.20
2018-11-11T05:43:50.492Z,10.20
2018-11-11T05:48:30.375Z,10.10
2018-11-11T05:53:10.148Z,10.00
2018-11-11T05:57:49.930Z,9.90
2018-11-11T06:02:29.762Z,9.90
2018-11-11T06:07:09.389Z,9.90
2018-11-11T06:11:49.392Z,9.90
2018-11-11T06:16:29.274Z,9.90
2018-11-11T06:21:09.920Z,9.90
2018-11-11T06:25:50.174Z,9.90
2018-11-11T06:30:29.861Z,9.90
2018-11-11T06:35:10.516Z,9.80
2018-11-11T06:39:50.361Z,9.80
2018-11-11T06:44:30.290Z,9.70
2018-11-11T06:49:10.265Z,9.60
2018-11-11T06:53:49.904Z,9.50
2018-11-11T06:58:29.961Z,9.50
2018-11-11T07:03:20.976Z,9.40
2018-11-11T07:08:00.859Z,9.40
2018-11-11T07:12:41.265Z,9.50
2018-11-11T07:17:21.401Z,9.70
2018-11-11T07:22:01.475Z,9.90
2018-11-11T07:26:42.876Z,9.90
2018-11-11T07:31:22.887Z,10.10
2018-11-11T07:36:02.852Z,10.20
2018-11-11T07:40:43.253Z,10.30
2018-11-11T07:45:23.208Z,10.30
2018-11-11T07:50:03.198Z,10.50
2018-11-11T07:54:43.330Z,11.50
2018-11-11T07:59:23.117Z,13.50
2018-11-11T08:04:04.026Z,15.20
2018-11-11T08:08:43.962Z,16.80
2018-11-11T08:13:24.292Z,17.10
2018-11-11T08:18:06.309Z,16.70
2018-11-11T08:22:47.108Z,16.20
2018-11-11T08:27:27.244Z,16.00
2018-11-11T08:32:07.386Z,16.20
2018-11-11T08:36:47.804Z,16.10
2018-11-11T08:41:28.658Z,16.90
2018-11-11T08:46:10.265Z,17.10
2018-11-11T08:50:50.246Z,18.00
2018-11-11T08:55:30.114Z,18.80
2018-11-11T09:00:13.012Z,18.90
2018-11-11T09:04:53.203Z,19.40
2018-11-11T09:09:33.176Z,20.40
2018-11-11T09:14:13.172Z,21.80
2018-11-11T09:18:53.414Z,22.90
2018-11-11T09:23:33.297Z,23.90
2018-11-11T09:28:13.337Z,24.50
2018-11-11T09:32:53.426Z,23.40
2018-11-11T09:37:33.265Z,21.80
2018-11-11T09:42:13.111Z,20.10
2018-11-11T09:46:53.032Z,18.70
2018-11-11T09:51:34.049Z,18.80
2018-11-11T09:56:14.681Z,20.70
2018-11-11T10:00:55.456Z,22.10
2018-11-11T10:05:41.635Z,21.30
2018-11-11T10:10:31.819Z,19.60
2018-11-11T10:15:15.961Z,18.70
2018-11-11T10:20:00.543Z,17.70
2018-11-11T10:24:44.965Z,17.20
2018-11-11T10:29:29.849Z,16.90
2018-11-11T10:34:14.097Z,16.40
2018-11-11T10:39:00.511Z,15.80
2018-11-11T10:43:47.056Z,15.40
2018-11-11T10:48:33.025Z,14.90
2018-11-11T10:53:13.125Z,14.80
2018-11-11T10:57:54.073Z,15.20
2018-11-11T11:02:39.817Z,15.60
2018-11-11T11:07:19.936Z,15.90
2018-11-11T11:11:59.665Z,16.10
2018-11-11T11:16:40.401Z,16.10
2018-11-11T11:21:20.264Z,15.90
2018-11-11T11:26:03.396Z,15.70
2018-11-11T11:30:43.223Z,15.50
2018-11-11T11:35:24.481Z,15.30
2018-11-11T11:40:04.665Z,15.10
2018-11-11T11:44:44.569Z,15.00
2018-11-11T11:49:25.742Z,14.90
2018-11-11T11:54:06.508Z,14.80
2018-11-11T11:58:46.133Z,14.70
2018-11-11T12:03:26.026Z,14.60
2018-11-11T12:08:07.145Z,14.50
2018-11-11T12:12:47.192Z,14.50
2018-11-11T12:17:27.388Z,14.40
2018-11-11T12:22:07.848Z,14.50
2018-11-11T12:26:49.397Z,14.50
2018-11-11T12:31:29.293Z,14.70
2018-11-11T12:36:09.763Z,14.90
2018-11-11T12:40:49.656Z,15.10
2018-11-11T12:45:29.412Z,15.40
2018-11-11T12:50:11.080Z,15.70
2018-11-11T12:54:51.132Z,16.00
2018-11-11T12:59:30.928Z,16.30
2018-11-11T13:04:12.099Z,16.50
2018-11-11T13:08:53.814Z,16.50
2018-11-11T13:13:33.561Z,16.40
2018-11-11T13:18:14.293Z,16.30
2018-11-11T13:22:55.112Z,16.10
2018-11-11T13:27:35.129Z,16.00
2018-11-11T13:32:14.925Z,15.90
2018-11-11T13:36:55.679Z,15.90
2018-11-11T13:41:36.434Z,15.90
2018-11-11T13:46:16.342Z,15.90
2018-11-11T13:50:56.092Z,15.80
2018-11-11T13:55:36.340Z,15.90
2018-11-11T14:00:21.530Z,15.90
2018-11-11T14:05:01.292Z,16.10
2018-11-11T14:09:42.916Z,16.10
2018-11-11T14:14:22.629Z,16.20
2018-11-11T14:19:03.296Z,16.20
2018-11-11T14:23:43.692Z,16.20
2018-11-11T14:28:24.515Z,16.00
2018-11-11T14:33:04.549Z,15.80
2018-11-11T14:37:44.957Z,15.60
2018-11-11T14:42:24.933Z,15.50
2018-11-11T14:47:04.790Z,15.40
2018-11-11T14:51:45.604Z,15.20
2018-11-11T14:56:25.518Z,15.00
2018-11-11T15:01:06.413Z,14.80
2018-11-11T15:05:47.556Z,14.60
2018-11-11T15:10:27.720Z,14.40
2018-11-11T15:15:12.380Z,14.30
2018-11-11T15:19:52.389Z,14.30
2018-11-11T15:24:32.829Z,14.20
2018-11-11T15:29:17.123Z,14.10
2018-11-11T15:33:59.654Z,14.00
2018-11-11T15:38:40.926Z,13.90
2018-11-11T15:43:21.677Z,13.80
2018-11-11T15:48:03.531Z,13.60
2018-11-11T15:52:46.301Z,13.50
2018-11-11T15:57:26.498Z,13.40
2018-11-11T16:02:06.293Z,13.20
2018-11-11T16:06:46.629Z,13.10
2018-11-11T16:11:26.391Z,13.00
2018-11-11T16:16:06.430Z,12.90
2018-11-11T16:20:47.020Z,12.80
2018-11-11T16:25:27.189Z,12.80
2018-11-11T16:30:09.549Z,12.80
2018-11-11T16:34:49.204Z,12.70
2018-11-11T16:39:29.172Z,12.70
2018-11-11T16:44:09.117Z,12.60
2018-11-11T16:48:48.765Z,12.60
2018-11-11T16:53:28.827Z,12.50
2018-11-11T16:58:09.984Z,12.60
2018-11-11T17:02:50.833Z,12.70
2018-11-11T17:07:30.958Z,12.90
2018-11-11T17:12:10.821Z,13.00
2018-11-11T17:16:51.013Z,13.10
2018-11-11T17:21:32.082Z,13.10
2018-11-11T17:26:12.250Z,13.00
2018-11-11T17:30:52.242Z,13.00
2018-11-11T17:35:33.442Z,12.80
2018-11-11T17:40:16.962Z,12.80
2018-11-11T17:44:57.221Z,12.80
2018-11-11T17:49:37.981Z,12.90
2018-11-11T17:54:18.890Z,12.70
2018-11-11T17:58:58.714Z,12.60
2018-11-11T18:03:38.610Z,12.50
2018-11-11T18:08:18.514Z,12.40
2018-11-11T18:12:58.377Z,12.20
2018-11-11T18:17:38.748Z,12.30
2018-11-11T18:22:18.634Z,12.30
2018-11-11T18:26:58.784Z,12.30
2018-11-11T18:31:38.793Z,12.30
2018-11-11T18:36:19.199Z,12.30
2018-11-11T18:40:59.773Z,12.30
2018-11-11T18:45:39.853Z,12.30
2018-11-11T18:50:24.313Z,12.30
2018-11-11T18:55:04.808Z,12.30
2018-11-11T18:59:44.605Z,12.30
2018-11-11T19:04:25.156Z,12.40
2018-11-11T19:09:08.828Z,12.50
2018-11-11T19:13:48.506Z,12.70
2018-11-11T19:18:28.769Z,12.90
2018-11-11T19:23:08.983Z,12.90
2018-11-11T19:27:50.292Z,13.00
2018-11-11T19:32:30.920Z,13.00
2018-11-11T19:37:10.857Z,13.00
2018-11-11T19:41:51.607Z,13.10
2018-11-11T19:46:32.733Z,13.10
2018-11-11T19:51:12.924Z,13.20
2018-11-11T19:55:53.341Z,13.20
2018-11-11T20:00:34.061Z,13.30
2018-11-11T20:05:15.190Z,13.30
2018-11-11T20:09:55.341Z,13.30
2018-11-11T20:14:35.589Z,13.20
2018-11-11T20:19:16.852Z,13.20
2018-11-11T20:23:56.944Z,13.20
2018-11-11T20:28:37.013Z,13.30
2018-11-11T20:33:17.026Z,13.30
2018-11-11T20:37:56.938Z,13.30
2018-11-11T20:42:36.698Z,13.20
2018-11-11T20:47:17.765Z,13.20
2018-11-11T20:51:58.593Z,13.10
2018-11-11T20:56:38.909Z,13.10
2018-11-11T21:01:20.836Z,13.10
2018-11-11T21:06:00.970Z,13.10
2018-11-11T21:10:41.185Z,13.00
2018-11-11T21:15:22.628Z,13.00
2018-11-11T21:20:04.364Z,12.90
2018-11-11T21:24:44.614Z,12.90
2018-11-11T21:29:24.932Z,12.90
2018-11-11T21:34:05.380Z,12.90
2018-11-11T21:38:45.623Z,12.80
2018-11-11T21:43:26.080Z,12.80
2018-11-11T21:48:06.415Z,12.80
2018-11-11T21:52:53.590Z,12.70
2018-11-11T21:57:33.677Z,12.70
2018-11-11T22:02:13.585Z,12.70
2018-11-11T22:06:53.404Z,12.60
2018-11-11T22:11:33.402Z,12.60
2018-11-11T22:16:13.639Z,12.60
2018-11-11T22:20:53.412Z,12.50
2018-11-11T22:25:34.085Z,12.40
2018-11-11T22:30:14.009Z,12.30
2018-11-11T22:34:54.865Z,12.30
2018-11-11T22:39:35.717Z,12.20
2018-11-11T22:44:16.813Z,12.00
2018-11-11T22:48:57.167Z,11.90
2018-11-11T22:53:38.118Z,11.80
2018-11-11T22:58:18.289Z,11.60
2018-11-11T23:02:59.004Z,11.50
2018-11-11T23:07:38.849Z,11.40
2018-11-11T23:12:19.924Z,11.30
2018-11-11T23:17:00.028Z,11.30
2018-11-11T23:21:41.128Z,11.30
2018-11-11T23:26:22.857Z,11.20
2018-11-11T23:31:03.033Z,11.20
2018-11-11T23:35:42.970Z,11.10
2018-11-11T23:40:23.536Z,11.00
2018-11-11T23:45:04.706Z,10.90
2018-11-11T23:49:44.706Z,10.90
2018-11-11T23:54:24.777Z,10.80
2018-11-11T23:59:06.225Z,10.80
